Aviation Digital Data Service (ADDS)

Output produced by METARs form (2322 UTC 26 August 2016)
found at http://aviationweather.gov/adds/metars/
 
KRUT 261720Z 2618/2718 31005KT P6SM SCT035 
     FM270000 13005KT P6SM SKC 
     FM270800 12005KT 1SM BR BKN001 
     FM271230 VRB03KT 3SM BR SCT004 
     FM271400 34004KT P6SM SKC AMD LTD TO CLD VIS AND WIND